sensor_id;sensor_type;location;lat;lon;timestamp;pressure;altitude;pressure_sealevel;temperature;humidity
11487;BME280;10510;47.942;9.442;2022-10-01T00:00:02;94429.94;;;6.58;100.00
11487;BME280;10510;47.942;9.442;2022-10-01T00:02:03;94426.06;;;6.54;100.00
11487;BME280;10510;47.942;9.442;2022-10-01T00:04:03;94431.25;;;6.54;100.00
11487;BME280;10510;47.942;9.442;2022-10-01T00:06:05;94433.19;;;6.52;100.00
11487;BME280;10510;47.942;9.442;2022-10-01T00:08:05;94433.19;;;6.52;100.00
11487;BME280;10510;47.942;9.442;2022-10-01T00:10:06;94433.03;;;6.53;100.00
11487;BME280;10510;47.942;9.442;2022-10-01T00:12:07;94434.81;;;6.53;100.00
11487;BME280;10510;47.942;9.442;2022-10-01T00:14:07;94427.34;;;6.50;100.00
11487;BME280;10510;47.942;9.442;2022-10-01T00:16:14;94418.75;;;6.49;100.00
11487;BME280;10510;47.942;9.442;2022-10-01T00:18:15;94419.88;;;6.47;100.00
11487;BME280;10510;47.942;9.442;2022-10-01T00:20:15;94426.38;;;6.43;100.00
11487;BME280;10510;47.942;9.442;2022-10-01T00:22:16;94425.09;;;6.39;100.00
11487;BME280;10510;47.942;9.442;2022-10-01T00:24:18;94433.22;;;6.35;100.00
11487;BME280;10510;47.942;9.442;2022-10-01T00:26:21;94429.16;;;6.33;100.00
11487;BME280;10510;47.942;9.442;2022-10-01T00:28:21;94431.88;;;6.31;100.00
11487;BME280;10510;47.942;9.442;2022-10-01T00:30:22;94425.91;;;6.31;100.00
11487;BME280;10510;47.942;9.442;2022-10-01T00:32:23;94424.75;;;6.33;100.00
11487;BME280;10510;47.942;9.442;2022-10-01T00:34:23;94424.44;;;6.36;100.00
11487;BME280;10510;47.942;9.442;2022-10-01T00:36:25;94422.50;;;6.39;100.00
11487;BME280;10510;47.942;9.442;2022-10-01T00:38:26;94414.53;;;6.40;100.00
11487;BME280;10510;47.942;9.442;2022-10-01T00:40:27;94423.13;;;6.41;100.00
11487;BME280;10510;47.942;9.442;2022-10-01T00:42:27;94416.00;;;6.43;100.00
11487;BME280;10510;47.942;9.442;2022-10-01T00:44:35;94412.41;;;6.44;100.00
11487;BME280;10510;47.942;9.442;2022-10-01T00:46:41;94418.25;;;6.46;100.00
11487;BME280;10510;47.942;9.442;2022-10-01T00:48:50;94424.59;;;6.43;100.00
11487;BME280;10510;47.942;9.442;2022-10-01T00:50:52;94424.59;;;6.43;100.00
11487;BME280;10510;47.942;9.442;2022-10-01T00:52:56;94425.72;;;6.41;100.00
11487;BME280;10510;47.942;9.442;2022-10-01T00:55:06;94428.50;;;6.39;100.00
11487;BME280;10510;47.942;9.442;2022-10-01T00:57:08;94434.00;;;6.36;100.00
11487;BME280;10510;47.942;9.442;2022-10-01T00:59:10;94438.06;;;6.30;100.00
11487;BME280;10510;47.942;9.442;2022-10-01T01:01:11;94431.22;;;6.29;100.00
11487;BME280;10510;47.942;9.442;2022-10-01T01:03:11;94423.78;;;6.26;100.00
11487;BME280;10510;47.942;9.442;2022-10-01T01:05:12;94420.69;;;6.23;100.00
11487;BME280;10510;47.942;9.442;2022-10-01T01:07:13;94422.00;;;6.19;100.00
11487;BME280;10510;47.942;9.442;2022-10-01T01:09:14;94426.53;;;6.17;100.00
11487;BME280;10510;47.942;9.442;2022-10-01T01:11:37;94427.66;;;6.14;100.00
11487;BME280;10510;47.942;9.442;2022-10-01T01:13:51;94426.84;;;6.13;100.00
11487;BME280;10510;47.942;9.442;2022-10-01T01:16:12;94432.22;;;6.12;100.00
11487;BME280;10510;47.942;9.442;2022-10-01T01:20:49;94429.28;;;6.07;100.00
11487;BME280;10510;47.942;9.442;2022-10-01T01:25:18;94421.16;;;6.02;100.00
11487;BME280;10510;47.942;9.442;2022-10-01T01:27:24;94415.00;;;6.03;100.00
11487;BME280;10510;47.942;9.442;2022-10-01T01:29:33;94412.25;;;6.04;100.00
11487;BME280;10510;47.942;9.442;2022-10-01T01:31:41;94415.66;;;6.05;100.00
11487;BME280;10510;47.942;9.442;2022-10-01T01:33:46;94419.22;;;6.04;100.00
11487;BME280;10510;47.942;9.442;2022-10-01T01:35:53;94421.50;;;6.07;100.00
11487;BME280;10510;47.942;9.442;2022-10-01T01:38:04;94419.41;;;6.10;100.00
11487;BME280;10510;47.942;9.442;2022-10-01T01:40:09;94422.47;;;6.14;100.00
11487;BME280;10510;47.942;9.442;2022-10-01T01:42:22;94432.53;;;6.17;100.00
11487;BME280;10510;47.942;9.442;2022-10-01T01:44:27;94430.59;;;6.19;100.00
11487;BME280;10510;47.942;9.442;2022-10-01T01:46:32;94416.50;;;6.22;100.00
11487;BME280;10510;47.942;9.442;2022-10-01T01:48:35;94412.09;;;6.22;100.00
11487;BME280;10510;47.942;9.442;2022-10-01T01:50:49;94407.72;;;6.23;100.00
11487;BME280;10510;47.942;9.442;2022-10-01T01:52:51;94407.56;;;6.24;100.00
11487;BME280;10510;47.942;9.442;2022-10-01T01:54:53;94422.97;;;6.26;100.00
11487;BME280;10510;47.942;9.442;2022-10-01T01:56:55;94418.59;;;6.26;100.00
11487;BME280;10510;47.942;9.442;2022-10-01T01:58:58;94413.38;;;6.26;100.00
11487;BME280;10510;47.942;9.442;2022-10-01T02:01:00;94410.78;;;6.26;100.00
11487;BME280;10510;47.942;9.442;2022-10-01T02:03:01;94408.19;;;6.26;100.00
11487;BME280;10510;47.942;9.442;2022-10-01T02:05:05;94406.25;;;6.28;100.00
11487;BME280;10510;47.942;9.442;2022-10-01T02:09:21;94408.19;;;6.26;100.00
11487;BME280;10510;47.942;9.442;2022-10-01T02:11:27;94404.00;;;6.25;100.00
11487;BME280;10510;47.942;9.442;2022-10-01T02:13:47;94403.00;;;6.26;100.00
11487;BME280;10510;47.942;9.442;2022-10-01T02:15:58;94396.88;;;6.27;100.00
11487;BME280;10510;47.942;9.442;2022-10-01T02:18:12;94401.88;;;6.29;100.00
11487;BME280;10510;47.942;9.442;2022-10-01T02:20:36;94401.56;;;6.32;100.00
11487;BME280;10510;47.942;9.442;2022-10-01T02:22:48;94393.75;;;6.32;100.00
11487;BME280;10510;47.942;9.442;2022-10-01T02:24:54;94396.34;;;6.32;100.00
11487;BME280;10510;47.942;9.442;2022-10-01T02:26:58;94393.13;;;6.30;100.00
11487;BME280;10510;47.942;9.442;2022-10-01T02:29:02;94384.50;;;6.29;100.00
11487;BME280;10510;47.942;9.442;2022-10-01T02:31:06;94387.75;;;6.31;100.00
11487;BME280;10510;47.942;9.442;2022-10-01T02:33:10;94391.16;;;6.32;100.00
11487;BME280;10510;47.942;9.442;2022-10-01T02:35:15;94380.63;;;6.33;100.00
11487;BME280;10510;47.942;9.442;2022-10-01T02:37:20;94378.03;;;6.33;100.00
11487;BME280;10510;47.942;9.442;2022-10-01T02:39:25;94376.09;;;6.35;100.00
11487;BME280;10510;47.942;9.442;2022-10-01T02:41:32;94377.88;;;6.35;100.00
11487;BME280;10510;47.942;9.442;2022-10-01T02:43:36;94382.72;;;6.38;100.00
11487;BME280;10510;47.942;9.442;2022-10-01T02:45:39;94383.22;;;6.42;100.00
11487;BME280;10510;47.942;9.442;2022-10-01T02:47:46;94381.25;;;6.44;100.00
11487;BME280;10510;47.942;9.442;2022-10-01T02:49:49;94380.13;;;6.46;100.00
11487;BME280;10510;47.942;9.442;2022-10-01T02:51:54;94380.13;;;6.46;100.00
11487;BME280;10510;47.942;9.442;2022-10-01T02:54:01;94382.41;;;6.49;100.00
11487;BME280;10510;47.942;9.442;2022-10-01T02:56:04;94376.06;;;6.52;100.00
11487;BME280;10510;47.942;9.442;2022-10-01T02:58:06;94378.50;;;6.53;100.00
11487;BME280;10510;47.942;9.442;2022-10-01T03:00:10;94362.94;;;6.53;100.00
11487;BME280;10510;47.942;9.442;2022-10-01T03:02:10;94365.53;;;6.53;100.00
11487;BME280;10510;47.942;9.442;2022-10-01T03:04:11;94365.34;;;6.55;100.00
11487;BME280;10510;47.942;9.442;2022-10-01T03:06:12;94366.34;;;6.54;100.00
11487;BME280;10510;47.942;9.442;2022-10-01T03:08:12;94362.59;;;6.56;100.00
11487;BME280;10510;47.942;9.442;2022-10-01T03:10:14;94364.06;;;6.59;100.00
11487;BME280;10510;47.942;9.442;2022-10-01T03:12:15;94366.34;;;6.62;100.00
11487;BME280;10510;47.942;9.442;2022-10-01T03:14:16;94365.34;;;6.63;100.00
11487;BME280;10510;47.942;9.442;2022-10-01T03:16:16;94364.34;;;6.64;100.00
11487;BME280;10510;47.942;9.442;2022-10-01T03:18:16;94372.81;;;6.66;100.00
11487;BME280;10510;47.942;9.442;2022-10-01T03:20:17;94375.25;;;6.68;100.00
11487;BME280;10510;47.942;9.442;2022-10-01T03:22:18;94366.63;;;6.67;100.00
11487;BME280;10510;47.942;9.442;2022-10-01T03:24:21;94366.47;;;6.69;100.00
11487;BME280;10510;47.942;9.442;2022-10-01T03:26:21;94371.47;;;6.70;100.00
11487;BME280;10510;47.942;9.442;2022-10-01T03:28:22;94365.34;;;6.71;100.00
11487;BME280;10510;47.942;9.442;2022-10-01T03:30:22;94361.59;;;6.74;100.00
11487;BME280;10510;47.942;9.442;2022-10-01T03:32:23;94358.81;;;6.75;100.00
11487;BME280;10510;47.942;9.442;2022-10-01T03:34:23;94367.41;;;6.76;100.00
11487;BME280;10510;47.942;9.442;2022-10-01T03:36:23;94364.00;;;6.75;100.00
11487;BME280;10510;47.942;9.442;2022-10-01T03:38:23;94357.84;;;6.76;100.00
11487;BME280;10510;47.942;9.442;2022-10-01T03:40:24;94353.47;;;6.77;100.00
11487;BME280;10510;47.942;9.442;2022-10-01T03:42:24;94354.28;;;6.77;100.00
11487;BME280;10510;47.942;9.442;2022-10-01T03:44:24;94355.88;;;6.78;100.00
11487;BME280;10510;47.942;9.442;2022-10-01T03:46:25;94360.94;;;6.80;100.00
11487;BME280;10510;47.942;9.442;2022-10-01T03:48:25;94361.72;;;6.80;100.00
11487;BME280;10510;47.942;9.442;2022-10-01T03:50:25;94372.59;;;6.84;100.00
11487;BME280;10510;47.942;9.442;2022-10-01T03:52:26;94366.59;;;6.83;100.00
11487;BME280;10510;47.942;9.442;2022-10-01T03:54:26;94370.81;;;6.85;100.00
11487;BME280;10510;47.942;9.442;2022-10-01T03:56:26;94363.00;;;6.85;100.00
11487;BME280;10510;47.942;9.442;2022-10-01T03:58:26;94361.22;;;6.85;100.00
11487;BME280;10510;47.942;9.442;2022-10-01T04:00:27;94355.22;;;6.85;100.00
11487;BME280;10510;47.942;9.442;2022-10-01T04:02:27;94367.41;;;6.84;100.00
11487;BME280;10510;47.942;9.442;2022-10-01T04:04:27;94361.56;;;6.82;100.00
11487;BME280;10510;47.942;9.442;2022-10-01T04:06:27;94369.19;;;6.83;100.00
11487;BME280;10510;47.942;9.442;2022-10-01T04:08:28;94364.81;;;6.84;100.00
11487;BME280;10510;47.942;9.442;2022-10-01T04:10:28;94359.59;;;6.84;100.00
11487;BME280;10510;47.942;9.442;2022-10-01T04:12:28;94356.34;;;6.82;100.00
11487;BME280;10510;47.942;9.442;2022-10-01T04:14:29;94346.16;;;6.80;100.00
11487;BME280;10510;47.942;9.442;2022-10-01T04:16:29;94350.53;;;6.80;100.00
11487;BME280;10510;47.942;9.442;2022-10-01T04:18:30;94341.94;;;6.79;100.00
11487;BME280;10510;47.942;9.442;2022-10-01T04:20:32;94345.34;;;6.80;100.00
11487;BME280;10510;47.942;9.442;2022-10-01T04:22:40;94343.69;;;6.79;100.00
11487;BME280;10510;47.942;9.442;2022-10-01T04:24:41;94347.94;;;6.80;100.00
11487;BME280;10510;47.942;9.442;2022-10-01T04:26:41;94361.72;;;6.80;100.00
11487;BME280;10510;47.942;9.442;2022-10-01T04:28:41;94359.94;;;6.81;100.00
11487;BME280;10510;47.942;9.442;2022-10-01T04:30:44;94355.22;;;6.85;100.00
11487;BME280;10510;47.942;9.442;2022-10-01T04:32:45;94355.06;;;6.86;100.00
11487;BME280;10510;47.942;9.442;2022-10-01T04:34:45;94360.88;;;6.88;100.00
11487;BME280;10510;47.942;9.442;2022-10-01T04:36:52;94348.72;;;6.89;100.00
11487;BME280;10510;47.942;9.442;2022-10-01T04:38:53;94345.94;;;6.90;100.00
11487;BME280;10510;47.942;9.442;2022-10-01T04:40:54;94339.28;;;6.88;100.00
11487;BME280;10510;47.942;9.442;2022-10-01T04:42:54;94348.88;;;6.87;100.00
11487;BME280;10510;47.942;9.442;2022-10-01T04:44:55;94350.81;;;6.85;100.00
11487;BME280;10510;47.942;9.442;2022-10-01T04:46:56;94343.22;;;6.83;100.00
11487;BME280;10510;47.942;9.442;2022-10-01T04:48:56;94346.47;;;6.86;100.00
11487;BME280;10510;47.942;9.442;2022-10-01T04:50:57;94350.03;;;6.85;100.00
11487;BME280;10510;47.942;9.442;2022-10-01T04:52:57;94352.63;;;6.85;100.00
11487;BME280;10510;47.942;9.442;2022-10-01T04:54:57;94353.28;;;6.87;100.00
11487;BME280;10510;47.942;9.442;2022-10-01T04:56:57;94349.53;;;6.89;100.00
11487;BME280;10510;47.942;9.442;2022-10-01T04:58:58;94351.47;;;6.95;100.00
11487;BME280;10510;47.942;9.442;2022-10-01T05:00:58;94356.31;;;6.98;100.00
11487;BME280;10510;47.942;9.442;2022-10-01T05:02:58;94355.31;;;6.99;100.00
11487;BME280;10510;47.942;9.442;2022-10-01T05:05:00;94352.41;;;7.02;100.00
11487;BME280;10510;47.942;9.442;2022-10-01T05:07:02;94347.69;;;7.06;100.00
11487;BME280;10510;47.942;9.442;2022-10-01T05:09:03;94355.16;;;7.09;100.00
11487;BME280;10510;47.942;9.442;2022-10-01T05:11:03;94356.44;;;7.13;100.00
11487;BME280;10510;47.942;9.442;2022-10-01T05:13:03;94363.06;;;7.16;100.00
11487;BME280;10510;47.942;9.442;2022-10-01T05:15:04;94360.28;;;7.17;100.00
11487;BME280;10510;47.942;9.442;2022-10-01T05:17:05;94360.13;;;7.19;100.00
11487;BME280;10510;47.942;9.442;2022-10-01T05:19:06;94356.41;;;7.21;100.00
11487;BME280;10510;47.942;9.442;2022-10-01T05:21:07;94359.31;;;7.26;100.00
11487;BME280;10510;47.942;9.442;2022-10-01T05:23:07;94357.31;;;7.28;100.00
11487;BME280;10510;47.942;9.442;2022-10-01T05:25:07;94359.59;;;7.32;100.00
11487;BME280;10510;47.942;9.442;2022-10-01T05:27:08;94365.44;;;7.34;100.00
11487;BME280;10510;47.942;9.442;2022-10-01T05:29:11;94360.88;;;7.36;100.00
11487;BME280;10510;47.942;9.442;2022-10-01T05:31:14;94355.50;;;7.37;100.00
11487;BME280;10510;47.942;9.442;2022-10-01T05:33:15;94352.75;;;7.39;100.00
11487;BME280;10510;47.942;9.442;2022-10-01T05:35:15;94351.41;;;7.43;100.00
11487;BME280;10510;47.942;9.442;2022-10-01T05:37:15;94357.41;;;7.43;100.00
11487;BME280;10510;47.942;9.442;2022-10-01T05:39:18;94352.22;;;7.43;100.00
11487;BME280;10510;47.942;9.442;2022-10-01T05:41:18;94357.25;;;7.45;100.00
11487;BME280;10510;47.942;9.442;2022-10-01T05:43:19;94359.06;;;7.44;100.00
11487;BME280;10510;47.942;9.442;2022-10-01T05:45:19;94353.03;;;7.44;100.00
11487;BME280;10510;47.942;9.442;2022-10-01T05:47:21;94344.25;;;7.45;100.00
11487;BME280;10510;47.942;9.442;2022-10-01T05:49:22;94347.66;;;7.45;100.00
11487;BME280;10510;47.942;9.442;2022-10-01T05:51:23;94344.88;;;7.47;100.00
11487;BME280;10510;47.942;9.442;2022-10-01T05:53:24;94345.06;;;7.45;100.00
11487;BME280;10510;47.942;9.442;2022-10-01T05:55:26;94342.47;;;7.45;100.00
11487;BME280;10510;47.942;9.442;2022-10-01T05:57:30;94347.66;;;7.45;100.00
11487;BME280;10510;47.942;9.442;2022-10-01T05:59:31;94337.25;;;7.45;100.00
11487;BME280;10510;47.942;9.442;2022-10-01T06:01:31;94349.47;;;7.45;100.00
11487;BME280;10510;47.942;9.442;2022-10-01T06:03:31;94351.88;;;7.46;100.00
11487;BME280;10510;47.942;9.442;2022-10-01T06:05:33;94344.88;;;7.47;100.00
11487;BME280;10510;47.942;9.442;2022-10-01T06:07:34;94353.31;;;7.49;100.00
11487;BME280;10510;47.942;9.442;2022-10-01T06:09:34;94351.38;;;7.51;100.00
11487;BME280;10510;47.942;9.442;2022-10-01T06:11:35;94358.19;;;7.52;100.00
11487;BME280;10510;47.942;9.442;2022-10-01T06:13:36;94359.81;;;7.53;100.00
11487;BME280;10510;47.942;9.442;2022-10-01T06:15:37;94358.84;;;7.54;100.00
11487;BME280;10510;47.942;9.442;2022-10-01T06:17:38;94371.66;;;7.56;100.00
11487;BME280;10510;47.942;9.442;2022-10-01T06:19:43;94358.66;;;7.56;100.00
11487;BME280;10510;47.942;9.442;2022-10-01T06:21:44;94370.69;;;7.57;100.00
11487;BME280;10510;47.942;9.442;2022-10-01T06:23:44;94365.47;;;7.57;100.00
11487;BME280;10510;47.942;9.442;2022-10-01T06:25:44;94362.69;;;7.58;100.00
11487;BME280;10510;47.942;9.442;2022-10-01T06:27:54;94365.94;;;7.60;100.00
11487;BME280;10510;47.942;9.442;2022-10-01T06:29:55;94350.34;;;7.60;100.00
11487;BME280;10510;47.942;9.442;2022-10-01T06:31:55;94359.75;;;7.61;100.00
11487;BME280;10510;47.942;9.442;2022-10-01T06:33:56;94344.16;;;7.61;100.00
11487;BME280;10510;47.942;9.442;2022-10-01T06:35:56;94349.19;;;7.63;100.00
11487;BME280;10510;47.942;9.442;2022-10-01T06:37:57;94345.59;;;7.64;100.00
11487;BME280;10510;47.942;9.442;2022-10-01T06:39:57;94337.97;;;7.62;100.00
11487;BME280;10510;47.942;9.442;2022-10-01T06:41:58;94338.59;;;7.64;100.00
11487;BME280;10510;47.942;9.442;2022-10-01T06:43:58;94337.63;;;7.65;100.00
11487;BME280;10510;47.942;9.442;2022-10-01T06:46:03;94332.44;;;7.65;100.00
11487;BME280;10510;47.942;9.442;2022-10-01T06:48:04;94333.88;;;7.68;100.00
11487;BME280;10510;47.942;9.442;2022-10-01T06:50:04;94331.09;;;7.69;100.00
11487;BME280;10510;47.942;9.442;2022-10-01T06:52:05;94340.50;;;7.70;100.00
11487;BME280;10510;47.942;9.442;2022-10-01T06:54:23;94328.34;;;7.71;100.00
11487;BME280;10510;47.942;9.442;2022-10-01T06:56:26;94317.09;;;7.70;100.00
11487;BME280;10510;47.942;9.442;2022-10-01T06:58:26;94322.31;;;7.70;100.00
11487;BME280;10510;47.942;9.442;2022-10-01T07:00:28;94324.75;;;7.72;100.00
11487;BME280;10510;47.942;9.442;2022-10-01T07:02:29;94328.16;;;7.72;100.00
11487;BME280;10510;47.942;9.442;2022-10-01T07:04:29;94323.59;;;7.74;100.00
11487;BME280;10510;47.942;9.442;2022-10-01T07:06:30;94330.41;;;7.76;100.00
11487;BME280;10510;47.942;9.442;2022-10-01T07:08:31;94322.59;;;7.76;100.00
11487;BME280;10510;47.942;9.442;2022-10-01T07:10:32;94329.44;;;7.77;100.00
11487;BME280;10510;47.942;9.442;2022-10-01T07:12:35;94333.81;;;7.76;100.00
11487;BME280;10510;47.942;9.442;2022-10-01T07:14:35;94319.03;;;7.77;100.00
11487;BME280;10510;47.942;9.442;2022-10-01T07:16:38;94319.66;;;7.79;100.00
11487;BME280;10510;47.942;9.442;2022-10-01T07:18:38;94310.88;;;7.80;100.00
11487;BME280;10510;47.942;9.442;2022-10-01T07:20:39;94316.09;;;7.80;100.00
11487;BME280;10510;47.942;9.442;2022-10-01T07:22:40;94324.69;;;7.80;100.00
11487;BME280;10510;47.942;9.442;2022-10-01T07:24:40;94322.91;;;7.81;100.00
11487;BME280;10510;47.942;9.442;2022-10-01T07:26:40;94319.31;;;7.82;100.00
11487;BME280;10510;47.942;9.442;2022-10-01T07:28:41;94319.94;;;7.84;100.00
11487;BME280;10510;47.942;9.442;2022-10-01T07:30:45;94325.78;;;7.86;100.00
11487;BME280;10510;47.942;9.442;2022-10-01T07:32:46;94315.38;;;7.86;100.00
11487;BME280;10510;47.942;9.442;2022-10-01T07:34:46;94312.25;;;7.90;100.00
11487;BME280;10510;47.942;9.442;2022-10-01T07:36:47;94313.69;;;7.93;100.00
11487;BME280;10510;47.942;9.442;2022-10-01T07:38:48;94321.00;;;7.97;100.00
11487;BME280;10510;47.942;9.442;2022-10-01T07:40:53;94322.44;;;8.00;100.00
11487;BME280;10510;47.942;9.442;2022-10-01T07:42:54;94314.28;;;8.03;100.00
11487;BME280;10510;47.942;9.442;2022-10-01T07:44:55;94310.31;;;8.07;100.00
11487;BME280;10510;47.942;9.442;2022-10-01T07:46:55;94312.41;;;8.12;100.00
11487;BME280;10510;47.942;9.442;2022-10-01T07:48:56;94310.25;;;8.15;100.00
11487;BME280;10510;47.942;9.442;2022-10-01T07:50:56;94305.66;;;8.17;100.00
11487;BME280;10510;47.942;9.442;2022-10-01T07:52:57;94319.16;;;8.21;100.00
11487;BME280;10510;47.942;9.442;2022-10-01T07:54:58;94322.56;;;8.22;100.00
11487;BME280;10510;47.942;9.442;2022-10-01T07:56:58;94314.56;;;8.23;100.00
11487;BME280;10510;47.942;9.442;2022-10-01T07:58:59;94317.00;;;8.25;100.00
11487;BME280;10510;47.942;9.442;2022-10-01T08:01:04;94328.88;;;8.27;100.00
11487;BME280;10510;47.942;9.442;2022-10-01T08:03:05;94333.44;;;8.25;100.00
11487;BME280;10510;47.942;9.442;2022-10-01T08:05:05;94323.03;;;8.25;100.00
11487;BME280;10510;47.942;9.442;2022-10-01T08:07:19;94310.19;;;8.24;100.00
11487;BME280;10510;47.942;9.442;2022-10-01T08:09:19;94301.41;;;8.25;100.00
11487;BME280;10510;47.942;9.442;2022-10-01T08:11:20;94302.38;;;8.24;100.00
11487;BME280;10510;47.942;9.442;2022-10-01T08:13:21;94305.00;;;8.24;100.00
11487;BME280;10510;47.942;9.442;2022-10-01T08:15:23;94299.16;;;8.22;100.00
11487;BME280;10510;47.942;9.442;2022-10-01T08:17:24;94305.97;;;8.23;100.00
11487;BME280;10510;47.942;9.442;2022-10-01T08:19:24;94310.19;;;8.24;100.00
11487;BME280;10510;47.942;9.442;2022-10-01T08:21:27;94312.97;;;8.22;100.00
11487;BME280;10510;47.942;9.442;2022-10-01T08:23:29;94307.91;;;8.20;100.00
11487;BME280;10510;47.942;9.442;2022-10-01T08:25:32;94311.72;;;8.18;100.00
11487;BME280;10510;47.942;9.442;2022-10-01T08:27:32;94318.69;;;8.17;100.00
11487;BME280;10510;47.942;9.442;2022-10-01T08:29:33;94321.47;;;8.16;100.00
11487;BME280;10510;47.942;9.442;2022-10-01T08:31:33;94309.28;;;8.16;100.00
11487;BME280;10510;47.942;9.442;2022-10-01T08:33:37;94312.69;;;8.17;100.00
11487;BME280;10510;47.942;9.442;2022-10-01T08:35:39;94304.06;;;8.16;100.00
11487;BME280;10510;47.942;9.442;2022-10-01T08:37:39;94310.06;;;8.17;100.00
11487;BME280;10510;47.942;9.442;2022-10-01T08:39:39;94306.50;;;8.18;100.00
11487;BME280;10510;47.942;9.442;2022-10-01T08:43:53;94302.19;;;8.25;100.00
11487;BME280;10510;47.942;9.442;2022-10-01T08:45:56;94306.25;;;8.28;100.00
11487;BME280;10510;47.942;9.442;2022-10-01T08:48:18;94308.50;;;8.31;100.00
11487;BME280;10510;47.942;9.442;2022-10-01T08:50:37;94312.72;;;8.32;100.00
11487;BME280;10510;47.942;9.442;2022-10-01T08:52:48;94309.94;;;8.33;100.00
11487;BME280;10510;47.942;9.442;2022-10-01T08:55:09;94318.56;;;8.34;100.00
11487;BME280;10510;47.942;9.442;2022-10-01T08:57:15;94315.31;;;8.32;100.00
11487;BME280;10510;47.942;9.442;2022-10-01T08:59:50;94305.88;;;8.31;100.00
11487;BME280;10510;47.942;9.442;2022-10-01T09:01:53;94313.06;;;8.29;100.00
11487;BME280;10510;47.942;9.442;2022-10-01T09:03:54;94327.25;;;8.26;100.00
11487;BME280;10510;47.942;9.442;2022-10-01T09:10:59;94312.63;;;8.25;100.00
11487;BME280;10510;47.942;9.442;2022-10-01T09:16:30;94333.44;;;8.25;100.00
11487;BME280;10510;47.942;9.442;2022-10-01T09:18:22;94327.25;;;8.26;100.00
11487;BME280;10510;47.942;9.442;2022-10-01T09:20:32;94316.66;;;8.28;100.00
11487;BME280;10510;47.942;9.442;2022-10-01T09:22:39;94306.69;;;8.31;100.00
11487;BME280;10510;47.942;9.442;2022-10-01T09:24:43;94318.56;;;8.34;100.00
11487;BME280;10510;47.942;9.442;2022-10-01T09:26:46;94308.59;;;8.37;100.00
11487;BME280;10510;47.942;9.442;2022-10-01T09:28:51;94323.09;;;8.40;100.00
11487;BME280;10510;47.942;9.442;2022-10-01T09:30:56;94317.06;;;8.39;100.00
11487;BME280;10510;47.942;9.442;2022-10-01T09:33:15;94309.06;;;8.41;100.00
11487;BME280;10510;47.942;9.442;2022-10-01T09:37:40;94312.50;;;8.41;100.00
11487;BME280;10510;47.942;9.442;2022-10-01T09:40:04;94315.91;;;8.42;100.00
11487;BME280;10510;47.942;9.442;2022-10-01T09:42:11;94306.09;;;8.44;100.00
11487;BME280;10510;47.942;9.442;2022-10-01T09:44:16;94316.38;;;8.46;100.00
11487;BME280;10510;47.942;9.442;2022-10-01T09:46:17;94321.56;;;8.46;100.00
11487;BME280;10510;47.942;9.442;2022-10-01T09:48:28;94319.78;;;8.46;100.00
11487;BME280;10510;47.942;9.442;2022-10-01T09:50:37;94318.59;;;8.49;100.00
11487;BME280;10510;47.942;9.442;2022-10-01T09:52:39;94323.66;;;8.50;100.00
11487;BME280;10510;47.942;9.442;2022-10-01T09:54:49;94325.91;;;8.53;100.00
11487;BME280;10510;47.942;9.442;2022-10-01T09:57:03;94316.09;;;8.55;100.00
11487;BME280;10510;47.942;9.442;2022-10-01T09:59:09;94322.31;;;8.54;100.00
11487;BME280;10510;47.942;9.442;2022-10-01T10:01:42;94316.28;;;8.54;100.00
11487;BME280;10510;47.942;9.442;2022-10-01T10:03:52;94311.53;;;8.57;100.00
11487;BME280;10510;47.942;9.442;2022-10-01T10:05:53;94310.38;;;8.60;100.00
11487;BME280;10510;47.942;9.442;2022-10-01T10:08:03;94321.59;;;8.60;100.00
11487;BME280;10510;47.942;9.442;2022-10-01T10:10:20;94315.56;;;8.60;100.00
11487;BME280;10510;47.942;9.442;2022-10-01T10:12:27;94332.34;;;8.57;100.00
11487;BME280;10510;47.942;9.442;2022-10-01T10:14:33;94323.28;;;8.53;100.00
11487;BME280;10510;47.942;9.442;2022-10-01T10:16:35;94313.25;;;8.50;100.00
11487;BME280;10510;47.942;9.442;2022-10-01T10:18:38;94317.16;;;8.46;100.00
11487;BME280;10510;47.942;9.442;2022-10-01T10:20:40;94324.34;;;8.44;100.00
11487;BME280;10510;47.942;9.442;2022-10-01T10:22:42;94322.09;;;8.41;100.00
11487;BME280;10510;47.942;9.442;2022-10-01T10:24:42;94328.63;;;8.37;100.00
11487;BME280;10510;47.942;9.442;2022-10-01T10:26:51;94320.81;;;8.37;100.00
11487;BME280;10510;47.942;9.442;2022-10-01T10:28:52;94329.28;;;8.39;100.00
11487;BME280;10510;47.942;9.442;2022-10-01T10:30:54;94336.75;;;8.42;100.00
11487;BME280;10510;47.942;9.442;2022-10-01T10:33:03;94334.44;;;8.47;100.00
11487;BME280;10510;47.942;9.442;2022-10-01T10:35:08;94338.09;;;8.53;100.00
11487;BME280;10510;47.942;9.442;2022-10-01T10:37:15;94333.16;;;8.58;100.00
11487;BME280;10510;47.942;9.442;2022-10-01T10:39:23;94335.41;;;8.61;100.00
11487;BME280;10510;47.942;9.442;2022-10-01T10:41:26;94335.25;;;8.62;100.00
11487;BME280;10510;47.942;9.442;2022-10-01T10:43:30;94346.91;;;8.67;100.00
11487;BME280;10510;47.942;9.442;2022-10-01T10:45:35;94355.03;;;8.72;100.00
11487;BME280;10510;47.942;9.442;2022-10-01T10:47:44;94349.25;;;8.76;100.00
11487;BME280;10510;47.942;9.442;2022-10-01T10:50:03;94354.31;;;8.78;100.00
11487;BME280;10510;47.942;9.442;2022-10-01T10:52:17;94349.53;;;8.81;100.00
11487;BME280;10510;47.942;9.442;2022-10-01T10:54:19;94350.34;;;8.82;100.00
11487;BME280;10510;47.942;9.442;2022-10-01T10:56:23;94358.00;;;8.83;100.00
11487;BME280;10510;47.942;9.442;2022-10-01T10:58:25;94350.81;;;8.85;100.00
11487;BME280;10510;47.942;9.442;2022-10-01T11:00:26;94359.25;;;8.87;100.00
11487;BME280;10510;47.942;9.442;2022-10-01T11:02:30;94362.47;;;8.90;100.00
11487;BME280;10510;47.942;9.442;2022-10-01T11:04:49;94370.59;;;8.95;100.00
11487;BME280;10510;47.942;9.442;2022-10-01T11:06:57;94366.97;;;8.96;100.00
11487;BME280;10510;47.942;9.442;2022-10-01T11:09:03;94365.44;;;9.01;100.00
11487;BME280;10510;47.942;9.442;2022-10-01T11:11:49;94360.50;;;9.06;100.00
11487;BME280;10510;47.942;9.442;2022-10-01T11:14:01;94365.16;;;9.11;100.00